Time;durP1;ratioP1;P1;durP2;ratioP2;P2;SDS_P1;SDS_P2;PMS_P1;PMS_P2;Temp;Humidity;BMP_temperature;BMP_pressure;BME280_temperature;BME280_humidity;BME280_pressure;Samples;Min_cycle;Max_cycle;Signal;HPM_P1;HPM_P2
2022/07/18 00:00:44;;;;;;;1.17;1.07;;;;;;;21.13;52.73;97349.00;10376605;28;20042;-23
2022/07/18 00:05:44;;;;;;;2.03;1.37;;;;;;;21.39;49.41;97344.75;10380845;28;20281;-23
2022/07/18 00:10:45;;;;;;;2.43;0.90;;;;;;;21.45;52.08;97339.63;10376256;28;20042;-23
2022/07/18 00:15:45;;;;;;;1.20;0.83;;;;;;;21.31;53.79;97351.53;10380217;28;20038;-23
2022/07/18 00:20:45;;;;;;;0.80;0.80;;;;;;;21.19;54.97;97351.56;10375591;28;20033;-23
2022/07/18 00:25:46;;;;;;;0.70;0.70;;;;;;;21.13;55.09;97354.09;10381870;28;20030;-23
2022/07/18 00:30:46;;;;;;;1.03;0.90;;;;;;;21.12;55.24;97349.00;10377140;28;20100;-24
2022/07/18 00:35:47;;;;;;;0.70;0.70;;;;;;;21.09;55.50;97356.66;10382162;28;20341;-23
2022/07/18 00:40:47;;;;;;;1.25;0.80;;;;;;;21.08;55.46;97353.28;10367989;28;20061;-23
2022/07/18 00:45:49;;;;;;;1.73;1.60;;;;;;;21.23;50.15;97340.50;10378864;28;20038;-23
2022/07/18 00:50:50;;;;;;;1.42;1.33;;;;;;;21.47;50.09;97355.75;10380099;28;20038;-24
2022/07/18 00:55:51;;;;;;;0.95;0.90;;;;;;;21.34;53.31;97356.66;10377585;28;20044;-23
2022/07/18 01:06:11;;;;;;;1.58;1.00;;;;;;;21.14;55.04;97355.81;10379284;28;20041;-23
2022/07/18 01:11:12;;;;;;;1.10;0.70;;;;;;;21.08;55.38;97344.78;10376057;28;20570;-23
2022/07/18 01:16:15;;;;;;;0.70;0.70;;;;;;;21.11;55.34;97350.72;10376686;28;20154;-23
2022/07/18 01:21:16;;;;;;;0.80;0.80;;;;;;;21.08;55.42;97350.72;10379314;28;20030;-23
2022/07/18 01:26:17;;;;;;;2.25;2.05;;;;;;;21.16;51.07;97338.84;10381380;28;20030;-22
2022/07/18 01:31:18;;;;;;;2.63;2.03;;;;;;;21.53;48.01;97345.56;10375685;28;20038;-23
2022/07/18 01:36:18;;;;;;;1.10;1.00;;;;;;;21.42;52.75;97343.88;10378987;28;20038;-23
2022/07/18 01:41:18;;;;;;;1.03;0.93;;;;;;;21.26;54.01;97343.06;10375169;28;20048;-23
2022/07/18 01:46:19;;;;;;;0.60;0.60;;;;;;;21.19;54.81;97356.66;10376928;28;20295;-24
2022/07/18 01:51:19;;;;;;;1.00;0.90;;;;;;;21.13;55.00;97366.84;10376538;28;20030;-22
2022/07/18 01:56:20;;;;;;;0.88;0.88;;;;;;;21.11;55.23;97358.34;10375254;28;20280;-23
2022/07/18 02:01:20;;;;;;;1.37;1.00;;;;;;;21.10;55.35;97358.34;10373546;28;20117;-23
2022/07/18 02:06:20;;;;;;;1.13;1.03;;;;;;;21.10;55.13;97355.81;10372904;28;20034;-23
2022/07/18 02:11:21;;;;;;;1.63;1.40;;;;;;;21.38;48.32;97360.03;10364094;28;20533;-23
2022/07/18 02:16:21;;;;;;;2.47;1.75;;;;;;;21.48;50.12;97354.91;10369466;28;20504;-24
2022/07/18 02:21:22;;;;;;;1.52;1.00;;;;;;;21.30;53.17;97349.00;10375595;28;20030;-23
2022/07/18 02:26:22;;;;;;;0.73;0.73;;;;;;;21.19;54.17;97351.56;10369745;28;20030;-23
2022/07/18 02:31:23;;;;;;;0.60;0.60;;;;;;;21.14;54.78;97349.88;10372874;28;20045;-22
2022/07/18 02:36:23;;;;;;;0.75;0.75;;;;;;;21.08;54.76;97345.63;10377081;28;20088;-23
2022/07/18 02:41:24;;;;;;;1.47;0.93;;;;;;;21.09;55.17;97357.53;10367198;28;20045;-23
2022/07/18 02:46:24;;;;;;;1.10;1.00;;;;;;;21.08;55.33;97355.81;10374456;28;20287;-23
2022/07/18 02:51:25;;;;;;;1.67;1.58;;;;;;;21.20;48.96;97353.25;10378890;28;20030;-24
2022/07/18 02:56:25;;;;;;;2.75;1.98;;;;;;;21.49;47.18;97343.88;10374415;28;20040;-22
2022/07/18 03:01:25;;;;;;;1.13;1.03;;;;;;;21.39;52.00;97337.09;10372345;28;20029;-23
2022/07/18 03:06:26;;;;;;;0.80;0.80;;;;;;;21.24;53.72;97344.75;10371014;28;20292;-22
2022/07/18 03:11:26;;;;;;;0.87;0.87;;;;;;;21.14;54.51;97343.06;10368163;28;20030;-24
2022/07/18 03:16:27;;;;;;;0.70;0.70;;;;;;;21.12;54.88;97347.31;10368313;28;20034;-23
2022/07/18 03:21:28;;;;;;;1.00;0.70;;;;;;;21.08;54.92;97339.69;10373226;28;20080;-23
2022/07/18 03:26:29;;;;;;;1.48;0.82;;;;;;;21.08;55.16;97344.78;10369221;28;20037;-23
2022/07/18 03:31:29;;;;;;;0.90;0.80;;;;;;;21.06;55.28;97337.13;10371933;28;20040;-24
2022/07/18 03:36:30;;;;;;;1.87;1.73;;;;;;;21.36;47.14;97339.66;10374984;28;20292;-23
2022/07/18 03:41:30;;;;;;;7.25;1.55;;;;;;;21.40;50.56;97350.69;10372306;28;20542;-23
2022/07/18 03:46:31;;;;;;;2.13;1.47;;;;;;;20.29;50.37;97349.72;10372151;28;20124;-21
2022/07/18 03:51:32;;;;;;;3.00;1.58;;;;;;;20.12;48.98;97348.81;10361820;28;20033;-22
2022/07/18 03:56:32;;;;;;;2.63;1.60;;;;;;;19.99;48.89;97357.19;10376910;28;20029;-22
2022/07/18 04:01:33;;;;;;;2.00;1.90;;;;;;;19.86;48.75;97352.94;10371572;28;20026;-22
2022/07/18 04:06:33;;;;;;;2.08;1.85;;;;;;;19.81;48.59;97354.59;10380109;28;20034;-22
2022/07/18 04:11:33;;;;;;;1.63;1.50;;;;;;;19.72;48.50;97357.06;10375047;28;20100;-22
2022/07/18 04:16:34;;;;;;;3.03;1.30;;;;;;;19.74;48.46;97351.16;10378372;28;20045;-22
2022/07/18 04:21:34;;;;;;;2.63;1.83;;;;;;;19.61;49.51;97351.94;10374327;28;20152;-21
2022/07/18 04:26:34;;;;;;;2.80;1.37;;;;;;;19.61;49.20;97358.72;10370084;28;20170;-22
2022/07/18 04:31:35;;;;;;;2.33;1.83;;;;;;;19.50;48.93;97353.56;10361564;28;20309;-22
2022/07/18 04:36:35;;;;;;;2.47;1.97;;;;;;;19.56;48.94;97355.28;10369720;28;20289;-22
2022/07/18 04:41:35;;;;;;;5.10;1.70;;;;;;;19.62;49.49;97346.03;10362707;28;20034;-22
2022/07/18 04:46:36;;;;;;;1.93;1.40;;;;;;;19.74;47.53;97345.22;10367816;28;20033;-22
2022/07/18 04:51:36;;;;;;;2.88;1.45;;;;;;;19.76;48.16;97348.66;10369098;28;20179;-21
2022/07/18 04:56:37;;;;;;;3.17;1.77;;;;;;;19.82;48.76;97349.53;10364140;28;20041;-21
2022/07/18 05:01:37;;;;;;;10.30;2.73;;;;;;;20.36;47.01;97348.91;10358512;28;20397;-21
2022/07/18 05:06:37;;;;;;;2.30;2.03;;;;;;;20.68;44.29;97343.88;10353788;28;20342;-21
2022/07/18 05:11:39;;;;;;;2.33;1.70;;;;;;;20.77;44.58;97343.88;10361509;28;20507;-21
2022/07/18 05:16:39;;;;;;;5.10;1.80;;;;;;;20.79;47.16;97342.19;10367325;28;20092;-21
2022/07/18 05:21:40;;;;;;;5.30;1.97;;;;;;;20.76;48.07;97342.19;10366990;28;20119;-21
2022/07/18 05:26:40;;;;;;;4.50;1.80;;;;;;;20.75;48.65;97335.41;10367727;28;20419;-22
2022/07/18 05:31:41;;;;;;;2.80;1.60;;;;;;;20.78;49.20;97335.41;10361308;28;20038;-21
2022/07/18 05:36:41;;;;;;;3.75;1.80;;;;;;;20.78;49.22;97334.53;10360582;28;20284;-21
2022/07/18 05:41:41;;;;;;;3.80;1.87;;;;;;;20.78;49.78;97340.50;10372886;28;20038;-21
2022/07/18 05:46:42;;;;;;;5.90;2.00;;;;;;;20.89;48.86;97336.28;10365411;28;20044;-22
2022/07/18 05:51:42;;;;;;;2.83;1.60;;;;;;;21.07;48.53;97331.19;10363964;28;20072;-21
2022/07/18 05:56:43;;;;;;;1.40;1.30;;;;;;;21.11;49.51;97337.13;10365880;28;20824;-23
2022/07/18 06:01:43;;;;;;;3.20;1.57;;;;;;;20.99;49.94;97330.34;10365804;28;20399;-22
2022/07/18 06:06:44;;;;;;;3.23;1.70;;;;;;;20.93;50.55;97339.69;10372922;28;20041;-22
2022/07/18 06:11:44;;;;;;;4.68;1.77;;;;;;;20.90;50.77;97337.97;10357863;28;20649;-22
2022/07/18 06:16:45;;;;;;;3.20;1.87;;;;;;;20.88;50.97;97328.66;10362544;28;20034;-22
2022/07/18 06:21:46;;;;;;;4.70;1.80;;;;;;;20.87;50.99;97325.25;10369202;28;20656;-22
2022/07/18 06:26:46;;;;;;;3.45;1.88;;;;;;;20.86;51.26;97315.94;10375342;28;20297;-22
2022/07/18 06:31:46;;;;;;;2.20;1.52;;;;;;;20.95;50.86;97304.88;10365600;28;20045;-22
2022/07/18 06:36:47;;;;;;;3.33;1.80;;;;;;;21.18;49.79;97308.25;10371347;28;20095;-22
2022/07/18 06:41:47;;;;;;;2.70;1.20;;;;;;;21.16;50.72;97317.59;10374343;28;20037;-23
2022/07/18 06:46:48;;;;;;;2.43;1.50;;;;;;;21.04;51.17;97318.47;10373368;28;20051;-22
2022/07/18 06:51:48;;;;;;;4.30;1.97;;;;;;;20.97;51.15;97315.94;10381288;28;21091;-21
2022/07/18 06:56:48;;;;;;;2.27;1.23;;;;;;;20.93;51.72;97317.63;10368261;28;20034;-22
2022/07/18 07:01:49;;;;;;;2.07;1.40;;;;;;;20.92;51.95;97323.56;10378495;28;20458;-23
2022/07/18 07:06:49;;;;;;;2.20;1.60;;;;;;;20.91;52.01;97326.09;10374189;28;20397;-22
2022/07/18 07:11:49;;;;;;;3.03;1.60;;;;;;;20.91;52.21;97329.53;10376279;28;20292;-21
2022/07/18 07:16:50;;;;;;;2.17;1.80;;;;;;;21.09;51.50;97329.50;10373348;28;20029;-22
2022/07/18 07:21:51;;;;;;;2.42;1.58;;;;;;;21.24;50.85;97326.91;10371813;28;20054;-22
2022/07/18 07:26:52;;;;;;;1.30;1.20;;;;;;;21.20;51.47;97327.78;10370821;28;20412;-22
2022/07/18 07:31:52;;;;;;;2.30;2.10;;;;;;;21.07;52.03;97315.91;10374608;28;20201;-21
2022/07/18 07:36:52;;;;;;;2.03;1.60;;;;;;;21.01;52.27;97318.47;10383496;28;20038;-22
2022/07/18 07:41:53;;;;;;;1.47;1.20;;;;;;;20.97;52.32;97319.31;10387676;28;20034;-22
2022/07/18 07:46:53;;;;;;;1.60;1.50;;;;;;;20.95;52.54;97326.09;10377862;28;20109;-22
2022/07/18 07:51:53;;;;;;;2.23;1.40;;;;;;;20.89;52.56;97310.81;10377617;28;20293;-22
2022/07/18 07:56:54;;;;;;;2.63;1.60;;;;;;;20.94;52.65;97316.78;10381465;28;20034;-22
2022/07/18 08:01:54;;;;;;;1.80;1.20;;;;;;;21.16;52.11;97313.38;10381627;28;20273;-22
2022/07/18 08:06:55;;;;;;;1.52;1.40;;;;;;;21.29;51.52;97306.56;10378888;28;20041;-22
2022/07/18 08:11:55;;;;;;;1.20;1.10;;;;;;;21.20;51.92;97302.31;10381134;28;20036;-21
2022/07/18 08:16:56;;;;;;;1.65;1.55;;;;;;;21.08;52.33;97294.72;10382528;28;20026;-21
2022/07/18 08:21:56;;;;;;;2.60;1.63;;;;;;;21.04;52.70;97295.56;10380140;28;20526;-22
2022/07/18 08:26:57;;;;;;;1.83;1.43;;;;;;;21.01;52.84;97292.16;10380349;28;20514;-23
2022/07/18 08:31:57;;;;;;;2.20;1.20;;;;;;;20.99;52.80;97294.69;10371109;28;20480;-20
2022/07/18 08:36:57;;;;;;;3.27;1.70;;;;;;;20.99;53.00;97286.22;10382341;28;20285;-22
2022/07/18 08:42:00;;;;;;;1.53;1.30;;;;;;;20.95;53.09;97280.28;10377527;28;20029;-21
2022/07/18 08:47:02;;;;;;;2.53;1.50;;;;;;;21.20;52.23;97273.44;10380254;28;20044;-22
2022/07/18 08:52:04;;;;;;;1.73;1.20;;;;;;;21.33;51.69;97276.00;10377148;28;20120;-22
2022/07/18 08:57:04;;;;;;;2.00;1.20;;;;;;;21.23;52.15;97268.38;10360460;28;20097;-22
2022/07/18 09:02:06;;;;;;;1.50;1.23;;;;;;;21.13;52.55;97271.78;10358645;28;20093;-22
2022/07/18 09:07:08;;;;;;;1.58;1.10;;;;;;;21.08;52.87;97279.44;10365780;28;20041;-23
2022/07/18 09:12:09;;;;;;;1.50;1.40;;;;;;;21.03;52.83;97276.03;10361179;28;20065;-22
2022/07/18 09:17:15;;;;;;;1.27;1.17;;;;;;;21.03;52.93;97281.13;10363904;28;20615;-22
2022/07/18 09:22:17;;;;;;;2.20;1.60;;;;;;;21.01;53.17;97277.75;10352735;28;20497;-22
2022/07/18 09:27:37;;;;;;;1.65;1.55;;;;;;;21.01;53.35;97277.75;10373087;28;20076;-22
2022/07/18 09:32:41;;;;;;;1.45;1.25;;;;;;;21.25;52.31;97272.63;10367260;28;20113;-21
2022/07/18 09:37:55;;;;;;;1.55;1.42;;;;;;;21.37;52.24;97282.75;10380036;28;20108;-23
2022/07/18 09:42:59;;;;;;;1.58;1.38;;;;;;;21.24;52.44;97281.06;10367504;28;20030;-22
2022/07/18 09:48:10;;;;;;;1.48;1.33;;;;;;;21.13;52.73;97266.69;10377323;28;20041;-23
2022/07/18 09:53:15;;;;;;;1.63;1.30;;;;;;;21.12;53.13;97272.59;10375411;28;20034;-22
2022/07/18 09:58:28;;;;;;;1.50;1.40;;;;;;;21.07;53.30;97282.81;10376695;28;20444;-22
2022/07/18 10:03:28;;;;;;;2.03;1.20;;;;;;;21.05;53.38;97284.50;10371922;28;20080;-22
2022/07/18 10:08:31;;;;;;;1.42;1.33;;;;;;;21.06;53.47;97291.28;10375406;28;20447;-23
2022/07/18 10:13:33;;;;;;;1.80;1.40;;;;;;;21.06;53.34;97277.75;10376599;28;20041;-22
2022/07/18 10:18:36;;;;;;;1.20;1.10;;;;;;;21.32;52.82;97273.44;10373662;28;20113;-22
2022/07/18 10:23:42;;;;;;;1.20;1.02;;;;;;;21.37;52.55;97270.03;10382632;28;20033;-23
2022/07/18 10:29:00;;;;;;;1.75;1.10;;;;;;;21.24;52.73;97270.88;10370682;28;20100;-22
2022/07/18 10:34:06;;;;;;;2.35;1.23;;;;;;;21.16;53.20;97270.09;10370931;28;20026;-23
2022/07/18 10:39:14;;;;;;;4.10;1.40;;;;;;;21.13;53.35;97266.69;10371201;28;20562;-22
2022/07/18 10:44:23;;;;;;;1.58;1.20;;;;;;;21.10;53.52;97264.13;10375325;28;20112;-22
2022/07/18 10:49:49;;;;;;;3.92;1.45;;;;;;;21.06;53.60;97268.38;10371854;28;20108;-22
2022/07/18 10:55:05;;;;;;;2.03;1.75;;;;;;;21.04;53.66;97259.91;10369126;28;20037;-22
2022/07/18 11:00:10;;;;;;;3.67;1.90;;;;;;;21.14;52.98;97259.03;10377530;28;20556;-22
2022/07/18 11:05:25;;;;;;;13.77;6.50;;;;;;;21.38;52.46;97248.78;10364623;28;20276;-22
2022/07/18 11:10:41;;;;;;;24.10;8.40;;;;;;;21.36;52.59;97245.41;10376263;28;20040;-22
2022/07/18 11:16:09;;;;;;;31.85;15.77;;;;;;;21.25;53.03;97251.38;10365657;28;20045;-22
2022/07/18 11:21:22;;;;;;;57.88;26.83;;;;;;;21.19;53.17;97257.34;10372443;28;20033;-22
2022/07/18 11:26:23;;;;;;;84.03;40.28;;;;;;;21.17;53.38;97245.44;10378038;28;20532;-23
2022/07/18 11:31:24;;;;;;;84.45;41.58;;;;;;;21.15;53.49;97239.53;10365419;28;20022;-21
2022/07/18 11:36:30;;;;;;;66.72;28.05;;;;;;;21.11;53.67;97233.59;10370211;28;20041;-22
2022/07/18 11:41:30;;;;;;;33.47;18.17;;;;;;;21.12;53.63;97230.19;10369310;28;20040;-22
2022/07/18 11:46:31;;;;;;;62.15;32.60;;;;;;;21.24;53.51;97225.03;10372800;28;20029;-23
2022/07/18 11:51:41;;;;;;;48.67;26.03;;;;;;;21.43;53.40;97210.56;10371236;28;20424;-22
2022/07/18 11:56:51;;;;;;;22.58;12.18;;;;;;;21.38;53.24;97213.13;10366600;28;20052;-23
2022/07/18 12:01:55;;;;;;;43.22;23.27;;;;;;;21.28;53.37;97210.59;10367996;28;20053;-22
2022/07/18 12:07:22;;;;;;;59.47;16.25;;;;;;;21.19;54.78;97205.53;10370853;28;20032;-22
2022/07/18 12:12:23;;;;;;;;;;;;;;;21.19;54.46;97206.41;10366586;28;20033;-22
2022/07/18 12:17:24;;;;;;;67.75;34.50;;;;;;;21.15;54.22;97199.59;10376374;28;19920;-22
2022/07/18 12:22:24;;;;;;;55.45;30.90;;;;;;;21.12;54.24;97208.94;10377692;28;20040;-22
2022/07/18 12:27:33;;;;;;;63.83;29.40;;;;;;;21.12;54.10;97204.72;10375974;28;20022;-22
2022/07/18 12:32:53;;;;;;;43.75;22.48;;;;;;;21.28;54.06;97200.41;10367723;28;20528;-22
2022/07/18 12:38:05;;;;;;;50.85;26.67;;;;;;;21.41;53.92;97192.72;10375436;28;20038;-22
2022/07/18 12:43:08;;;;;;;27.05;13.23;;;;;;;21.40;53.53;97196.13;10379112;28;20041;-22
2022/07/18 12:48:11;;;;;;;46.63;22.10;;;;;;;21.27;53.58;97184.31;10379328;28;20037;-22
2022/07/18 12:53:13;;;;;;;38.33;19.70;;;;;;;21.23;53.68;97181.78;10380275;28;20476;-23
2022/07/18 12:58:13;;;;;;;54.65;29.05;;;;;;;21.20;54.10;97181.75;10380201;28;20064;-22
2022/07/18 13:03:14;;;;;;;56.50;28.90;;;;;;;21.18;54.11;97179.25;10382655;28;20105;-22
2022/07/18 13:08:14;;;;;;;48.58;28.13;;;;;;;21.13;54.33;97175.84;10372235;28;20033;-22
2022/07/18 13:13:15;;;;;;;53.60;30.92;;;;;;;21.14;54.16;97176.72;10381470;28;20540;-22
2022/07/18 13:18:15;;;;;;;34.45;18.15;;;;;;;21.30;54.34;97178.38;10368329;28;20039;-23
2022/07/18 13:23:16;;;;;;;45.47;24.13;;;;;;;21.49;53.79;97173.16;10376584;28;20334;-23
2022/07/18 13:28:16;;;;;;;23.00;13.10;;;;;;;21.47;53.63;97171.50;10367653;28;20295;-23
2022/07/18 13:33:17;;;;;;;26.57;15.73;;;;;;;21.36;53.70;97173.22;10369426;28;20022;-22
2022/07/18 13:38:17;;;;;;;39.80;20.20;;;;;;;21.28;53.82;97168.16;10373651;28;20037;-22
2022/07/18 13:43:18;;;;;;;49.23;26.27;;;;;;;21.29;54.21;97164.75;10371674;28;20273;-22
2022/07/18 13:48:19;;;;;;;52.67;29.92;;;;;;;21.24;54.33;97163.09;10373609;28;20152;-21
2022/07/18 13:53:19;;;;;;;48.30;24.30;;;;;;;21.26;55.03;97158.84;10370110;28;20094;-22
2022/07/18 13:58:20;;;;;;;47.67;24.70;;;;;;;21.22;55.25;97149.53;10361013;28;20276;-21
2022/07/18 14:03:20;;;;;;;54.55;31.90;;;;;;;21.26;55.34;97139.31;10372207;28;20105;-22
2022/07/18 14:08:20;;;;;;;38.23;18.87;;;;;;;21.49;54.42;97137.50;10374287;28;20060;-22
2022/07/18 14:13:21;;;;;;;19.57;10.30;;;;;;;21.51;54.02;97123.06;10371591;28;20033;-23
2022/07/18 14:18:21;;;;;;;29.07;14.70;;;;;;;21.39;54.26;97125.66;10366775;28;20044;-22
2022/07/18 14:23:22;;;;;;;28.07;15.13;;;;;;;21.30;54.55;97122.31;10369059;28;20030;-23
2022/07/18 14:28:22;;;;;;;33.55;17.73;;;;;;;21.27;54.56;97120.63;10367767;28;20280;-23
2022/07/18 14:33:22;;;;;;;42.73;25.00;;;;;;;21.26;54.54;97116.41;10358562;28;20040;-22
2022/07/18 14:38:23;;;;;;;44.00;25.43;;;;;;;21.23;54.68;97108.75;10362177;28;20044;-22
2022/07/18 14:43:23;;;;;;;39.83;21.80;;;;;;;21.23;54.86;97106.22;10363419;28;20084;-22
2022/07/18 14:48:24;;;;;;;43.05;24.80;;;;;;;21.27;55.54;97109.59;10357168;28;20033;-22
2022/07/18 14:53:24;;;;;;;26.97;15.17;;;;;;;21.51;54.63;97102.69;10359928;28;20661;-22
2022/07/18 14:58:25;;;;;;;18.60;10.32;;;;;;;21.58;54.12;97104.34;10367580;28;20432;-22
2022/07/18 15:03:25;;;;;;;23.53;14.47;;;;;;;21.43;54.31;97101.88;10369653;28;20286;-23
2022/07/18 15:08:26;;;;;;;26.48;15.55;;;;;;;21.36;54.54;97099.34;10370334;28;20359;-22
2022/07/18 15:13:26;;;;;;;30.33;17.27;;;;;;;21.33;54.70;97086.63;10366374;28;20035;-23
2022/07/18 15:18:26;;;;;;;40.93;23.57;;;;;;;21.32;54.72;97090.88;10361410;28;20116;-22
2022/07/18 15:23:27;;;;;;;33.53;19.07;;;;;;;21.29;54.87;97085.81;10363408;28;20389;-22
2022/07/18 15:28:27;;;;;;;38.43;22.70;;;;;;;21.27;54.57;97092.63;10367117;28;20544;-22
2022/07/18 15:33:27;;;;;;;38.30;23.20;;;;;;;21.27;54.86;97082.44;10364962;28;20471;-22
2022/07/18 15:38:28;;;;;;;24.80;14.20;;;;;;;21.51;54.37;97072.09;10367036;28;20403;-23
2022/07/18 15:43:29;;;;;;;21.77;12.40;;;;;;;21.59;54.00;97059.31;10373670;28;20277;-24
2022/07/18 15:48:29;;;;;;;22.37;14.27;;;;;;;21.47;54.67;97062.78;10370032;28;20026;-23
2022/07/18 15:53:30;;;;;;;22.98;14.63;;;;;;;21.39;54.42;97056.06;10353932;28;20473;-24
2022/07/18 15:58:30;;;;;;;27.50;17.10;;;;;;;21.34;54.67;97043.34;10356397;28;20492;-23
2022/07/18 16:03:31;;;;;;;35.85;21.58;;;;;;;21.32;54.77;97041.66;10357857;28;20498;-22
2022/07/18 16:08:31;;;;;;;36.97;21.70;;;;;;;21.31;54.83;97035.69;10360604;28;20518;-22
2022/07/18 16:13:31;;;;;;;36.17;22.17;;;;;;;21.29;54.77;97037.41;10365846;28;20496;-23
2022/07/18 16:18:32;;;;;;;29.67;17.85;;;;;;;21.24;54.81;97023.84;10368148;28;20455;-23
2022/07/18 16:23:32;;;;;;;20.23;13.17;;;;;;;21.48;54.73;97026.25;10372586;28;20057;-23
2022/07/18 16:28:33;;;;;;;16.73;10.50;;;;;;;21.64;54.14;97025.28;10370707;28;20286;-23
2022/07/18 16:33:33;;;;;;;19.10;12.00;;;;;;;21.55;54.28;97016.88;10375896;28;20476;-23
2022/07/18 16:38:33;;;;;;;22.07;11.90;;;;;;;21.41;54.64;97013.56;10379996;28;20484;-23
2022/07/18 16:43:34;;;;;;;22.77;13.65;;;;;;;21.34;54.69;97015.31;10369498;28;20464;-23
2022/07/18 16:48:35;;;;;;;25.42;16.05;;;;;;;21.31;55.19;97007.69;10362603;28;20032;-24
2022/07/18 16:53:38;;;;;;;27.88;16.88;;;;;;;21.32;54.94;97004.28;10377594;28;20034;-25
2022/07/18 16:58:38;;;;;;;22.95;14.98;;;;;;;21.28;55.39;97007.72;10366663;28;20026;-25
2022/07/18 17:03:39;;;;;;;13.00;9.05;;;;;;;21.45;54.54;97000.81;10382674;28;20030;-24
2022/07/18 17:08:40;;;;;;;16.77;11.18;;;;;;;21.53;55.09;97004.16;10373956;28;20026;-24
2022/07/18 17:13:41;;;;;;;16.77;10.77;;;;;;;21.66;54.62;96994.72;10377217;28;20404;-23
2022/07/18 17:18:41;;;;;;;15.70;9.27;;;;;;;21.68;54.24;97010.84;10381606;28;20210;-23
2022/07/18 17:23:43;;;;;;;12.57;8.48;;;;;;;21.53;54.61;96999.03;10368633;28;20046;-24
2022/07/18 17:28:44;;;;;;;19.00;11.13;;;;;;;21.44;54.89;96991.47;10359973;28;20116;-24
2022/07/18 17:33:45;;;;;;;20.95;10.45;;;;;;;21.45;54.99;97005.03;10365253;28;20041;-23
2022/07/18 17:38:48;;;;;;;28.23;14.00;;;;;;;21.96;54.83;96995.31;10366800;28;20049;-24
2022/07/18 17:43:49;;;;;;;19.33;10.00;;;;;;;21.62;54.70;96993.88;10362359;28;20140;-24
2022/07/18 17:48:50;;;;;;;18.90;10.40;;;;;;;21.50;54.91;96993.97;10362558;28;20034;-24
2022/07/18 17:53:51;;;;;;;20.85;14.85;;;;;;;21.35;55.89;96960.97;10361466;28;20125;-23
2022/07/18 17:58:51;;;;;;;17.58;11.30;;;;;;;21.77;54.77;96996.34;10368014;28;20123;-24
2022/07/18 18:03:54;;;;;;;19.77;10.93;;;;;;;21.80;54.67;96998.03;10370024;28;20026;-24
2022/07/18 18:08:54;;;;;;;15.05;9.40;;;;;;;21.64;55.03;97004.06;10374563;28;20282;-25
2022/07/18 18:13:55;;;;;;;20.53;12.97;;;;;;;21.52;54.99;97006.69;10370129;28;20406;-24
2022/07/18 18:18:55;;;;;;;22.00;11.48;;;;;;;21.47;54.90;96999.09;10362921;28;20437;-24
2022/07/18 18:23:55;;;;;;;19.13;12.00;;;;;;;21.46;55.10;97007.59;10379191;28;20026;-24
2022/07/18 18:28:56;;;;;;;25.00;13.47;;;;;;;21.44;55.28;97003.34;10347160;28;20040;-22
2022/07/18 18:33:56;;;;;;;20.10;11.73;;;;;;;21.44;55.41;97011.84;10365386;28;20069;-23
2022/07/18 18:38:56;;;;;;;20.20;14.20;;;;;;;21.42;55.64;97011.03;10348589;28;20832;-23
2022/07/18 18:43:57;;;;;;;13.50;9.37;;;;;;;21.70;55.53;97015.09;10319495;28;20048;-23
2022/07/18 18:48:58;;;;;;;14.03;8.67;;;;;;;21.78;55.42;97015.88;10344960;28;20041;-24
2022/07/18 18:53:58;;;;;;;15.48;9.45;;;;;;;21.63;55.50;97008.31;10347807;28;20073;-23
2022/07/18 18:58:59;;;;;;;22.63;12.13;;;;;;;21.56;55.30;97011.75;10355441;28;20036;-24
2022/07/18 19:03:59;;;;;;;21.10;13.33;;;;;;;21.52;55.43;97007.56;10351506;28;20452;-25
2022/07/18 19:09:00;;;;;;;23.87;14.00;;;;;;;21.49;55.33;97011.81;10358517;28;20053;-24
2022/07/18 19:14:01;;;;;;;24.30;13.45;;;;;;;21.45;55.47;97011.00;10361194;28;20359;-24
2022/07/18 19:19:02;;;;;;;18.27;11.45;;;;;;;21.47;55.85;97014.38;10349346;28;20268;-24
2022/07/18 19:24:03;;;;;;;27.65;14.20;;;;;;;21.59;57.40;97019.41;10370575;28;20029;-24
2022/07/18 19:29:03;;;;;;;16.90;10.52;;;;;;;21.72;56.44;97026.09;10368318;28;20069;-24
2022/07/18 19:34:04;;;;;;;14.68;9.98;;;;;;;21.88;55.78;97027.66;10365857;28;20030;-24
2022/07/18 19:39:07;;;;;;;17.03;9.77;;;;;;;21.73;55.92;97032.88;10380918;28;20102;-24
2022/07/18 19:44:07;;;;;;;15.50;11.27;;;;;;;21.60;55.59;97036.38;10375177;28;20250;-23
2022/07/18 19:49:08;;;;;;;24.07;14.53;;;;;;;21.54;55.32;97049.16;10370805;28;20034;-23
2022/07/18 19:54:08;;;;;;;22.17;12.32;;;;;;;21.51;56.35;97036.44;10370058;28;20292;-22
2022/07/18 19:59:09;;;;;;;17.30;11.40;;;;;;;21.48;55.66;97040.72;10382547;28;20026;-23
2022/07/18 20:04:09;;;;;;;18.23;10.70;;;;;;;21.46;55.33;97045.78;10376130;28;20322;-23
2022/07/18 20:09:09;;;;;;;15.10;8.63;;;;;;;21.72;55.98;97046.50;10372855;28;20037;-23
2022/07/18 20:14:10;;;;;;;15.03;8.43;;;;;;;21.82;55.21;97045.56;10368476;28;20026;-24
2022/07/18 20:19:10;;;;;;;11.83;7.37;;;;;;;21.65;55.24;97044.84;10374441;28;20087;-24
2022/07/18 20:24:10;;;;;;;15.00;7.90;;;;;;;21.53;55.17;97050.00;10374910;28;20034;-23
2022/07/18 20:29:11;;;;;;;10.00;7.53;;;;;;;21.45;55.33;97046.66;10376540;28;20244;-24
2022/07/18 20:34:11;;;;;;;10.60;6.97;;;;;;;21.39;55.36;97043.31;10377034;28;20037;-23
2022/07/18 20:39:12;;;;;;;15.35;8.93;;;;;;;21.39;55.46;97038.22;10369251;28;20034;-23
2022/07/18 20:44:12;;;;;;;13.13;9.05;;;;;;;21.38;55.46;97050.09;10375394;28;20037;-23
2022/07/18 20:49:13;;;;;;;11.93;8.23;;;;;;;21.36;55.47;97051.81;10374385;28;20108;-24
2022/07/18 20:54:13;;;;;;;15.23;10.10;;;;;;;21.57;56.34;97049.13;10367665;28;20370;-23
2022/07/18 20:59:13;;;;;;;13.37;9.73;;;;;;;21.80;56.10;97049.81;10369880;28;20686;-22
2022/07/18 21:04:14;;;;;;;12.27;9.60;;;;;;;21.71;55.36;97049.06;10375051;28;20037;-23
2022/07/18 21:09:15;;;;;;;11.80;8.47;;;;;;;21.50;55.18;97044.94;10376373;28;20288;-23
2022/07/18 21:19:34;;;;;;;11.05;7.07;;;;;;;21.41;55.50;97059.44;10379903;28;20037;-23
2022/07/18 21:24:35;;;;;;;11.30;7.00;;;;;;;21.33;55.37;97051.84;10378239;28;20068;-23
2022/07/18 21:29:38;;;;;;;9.98;7.03;;;;;;;21.35;55.55;97060.31;10375660;28;20296;-23
2022/07/18 21:34:39;;;;;;;12.27;7.90;;;;;;;21.34;55.71;97051.00;10376767;28;20060;-24
2022/07/18 21:39:39;;;;;;;10.98;7.32;;;;;;;21.37;56.13;97058.59;10378872;28;20022;-23
2022/07/18 21:44:39;;;;;;;12.10;7.93;;;;;;;21.70;55.63;97042.25;10380793;28;20045;-23
2022/07/18 21:49:40;;;;;;;10.38;7.25;;;;;;;21.79;55.31;97049.81;10378044;28;20033;-24
2022/07/18 21:54:40;;;;;;;11.57;7.53;;;;;;;21.56;55.23;97039.78;10370088;28;20045;-24
2022/07/18 21:59:40;;;;;;;9.80;7.40;;;;;;;21.49;55.44;97040.66;10383863;28;20655;-24
2022/07/18 22:04:41;;;;;;;10.10;7.20;;;;;;;21.42;55.50;97035.63;10380616;28;20048;-24
2022/07/18 22:09:42;;;;;;;8.75;6.82;;;;;;;21.38;55.49;97039.09;10372864;28;20095;-24
2022/07/18 22:14:42;;;;;;;10.80;7.07;;;;;;;21.36;55.84;97033.97;10375711;28;20053;-23
2022/07/18 22:19:42;;;;;;;9.27;6.73;;;;;;;21.35;55.67;97037.38;10376989;28;20051;-22
2022/07/18 22:24:43;;;;;;;9.83;7.33;;;;;;;21.34;55.95;97038.25;10371083;28;20375;-23
2022/07/18 22:29:43;;;;;;;11.57;7.80;;;;;;;21.54;55.70;97031.31;10380077;28;20464;-23
2022/07/18 22:34:43;;;;;;;12.37;8.10;;;;;;;21.81;55.62;97041.31;10375551;28;20511;-22
2022/07/18 22:39:44;;;;;;;9.83;7.67;;;;;;;21.69;55.34;97041.44;10378761;28;20492;-23
2022/07/18 22:44:44;;;;;;;8.53;6.77;;;;;;;21.55;55.23;97042.34;10372178;28;20506;-23
2022/07/18 22:49:44;;;;;;;9.10;6.23;;;;;;;21.44;55.42;97034.78;10377048;28;20029;-22
2022/07/18 22:54:45;;;;;;;10.07;7.00;;;;;;;21.41;55.36;97028.84;10377626;28;20528;-23
2022/07/18 22:59:45;;;;;;;10.97;6.53;;;;;;;21.38;55.40;97029.72;10370839;28;20389;-23
2022/07/18 23:04:46;;;;;;;8.23;6.33;;;;;;;21.35;55.54;97029.75;10373251;28;20779;-24
2022/07/18 23:09:46;;;;;;;8.50;6.07;;;;;;;21.34;55.49;97020.41;10378060;28;20045;-23
2022/07/18 23:14:46;;;;;;;8.97;5.93;;;;;;;21.45;55.86;97026.28;10374248;28;20128;-24
2022/07/18 23:19:48;;;;;;;7.27;6.10;;;;;;;21.71;55.17;97029.50;10377027;28;20045;-24